Doric Champion — A8XF5 — position and weather

sailwx.info

Track history (hours):
 
Tides and Currents Weather Stations Pressure Air Temp Water Temp Dewpoint Dewpoint Depression Visibility Wind Speed Wind Dir Waves Ship Positions

Doric Champion

Last reported at 2014-Oct-01 07:26 UTC. Time now 2014-Oct-01 20:30 UTC.
Position N 35°59' W 011°11'.

Length 229 m; draft 14.6 m.

Type: Cargo ship. MMSI: 636014887.

Date/timePositionNaut miles runAvg speedWind from/ knotsBaromVisibWave heightAir tempDewpointWater temp
2014-Oct-01 07:26N 35°59' W 011°11'54510.9
2014-Sep-29 05:26N 36°10' W 022°25'1010.9
2014-Sep-29 04:32N 36°10' W 022°38'4411.0
2014-Sep-29 00:32N 36°11' W 023°32'1110.8
2014-Sep-28 23:32N 36°11' W 023°46'1410.8
2014-Sep-28 22:14N 36°11' W 024°03'710.7
2014-Sep-28 21:33N 36°12' W 024°12'1110.6
2014-Sep-28 20:33N 36°12' W 024°25'1110.6
2014-Sep-28 19:33N 36°12' W 024°38'1110.7
2014-Sep-28 18:33N 36°12' W 024°52'1110.8
2014-Sep-28 17:34N 36°12' W 025°05'1111.1
2014-Sep-28 16:33N 36°13' W 025°19'1110.9
2014-Sep-28 15:33N 36°13' W 025°32'1110.9
2014-Sep-28 14:34N 36°13' W 025°46'1211.1
2014-Sep-28 13:26N 36°13' W 026°01'1310.6
2014-Sep-28 12:11N 36°13' W 026°18'810.9
2014-Sep-28 11:24N 36°14' W 026°28'910.6
2014-Sep-28 10:33N 36°14' W 026°39'1110.7
2014-Sep-28 09:32N 36°14' W 026°53'1411.2
2014-Sep-28 08:17N 36°14' W 027°11'811.1
2014-Sep-28 07:33N 36°15' W 027°20'1510.7
2014-Sep-28 06:09N 36°15' W 027°39'6311.2
2014-Sep-28 00:30N 36°16' W 028°57'  
Track history (hours):
 
Tides and Currents Weather Stations Pressure Air Temp Water Temp Dewpoint Dewpoint Depression Visibility Wind Speed Wind Dir Waves Ship Positions

Doric Champion

Last reported at 2014-Oct-01 07:26 UTC. Time now 2014-Oct-01 20:30 UTC.
Position N 35°59' W 011°11'.

Length 229 m; draft 14.6 m.

Type: Cargo ship. MMSI: 636014887.

Date/timePositionNaut miles runAvg speedWind from/ knotsBaromVisibWave heightAir tempDewpointWater temp
2014-Oct-01 07:26N 35°59' W 011°11'54510.9
2014-Sep-29 05:26N 36°10' W 022°25'1010.9
2014-Sep-29 04:32N 36°10' W 022°38'4411.0
2014-Sep-29 00:32N 36°11' W 023°32'1110.8
2014-Sep-28 23:32N 36°11' W 023°46'1410.8
2014-Sep-28 22:14N 36°11' W 024°03'710.7
2014-Sep-28 21:33N 36°12' W 024°12'1110.6
2014-Sep-28 20:33N 36°12' W 024°25'1110.6
2014-Sep-28 19:33N 36°12' W 024°38'1110.7
2014-Sep-28 18:33N 36°12' W 024°52'1110.8
2014-Sep-28 17:34N 36°12' W 025°05'1111.1
2014-Sep-28 16:33N 36°13' W 025°19'1110.9
2014-Sep-28 15:33N 36°13' W 025°32'1110.9
2014-Sep-28 14:34N 36°13' W 025°46'1211.1
2014-Sep-28 13:26N 36°13' W 026°01'1310.6
2014-Sep-28 12:11N 36°13' W 026°18'810.9
2014-Sep-28 11:24N 36°14' W 026°28'910.6
2014-Sep-28 10:33N 36°14' W 026°39'1110.7
2014-Sep-28 09:32N 36°14' W 026°53'1411.2
2014-Sep-28 08:17N 36°14' W 027°11'811.1
2014-Sep-28 07:33N 36°15' W 027°20'1510.7
2014-Sep-28 06:09N 36°15' W 027°39'6311.2
2014-Sep-28 00:30N 36°16' W 028°57'  

Dump ship's entire track history